Aeroporto :
LOGIN :

Iscrizione | Disclaimer

   EN    FR    IT 

 










Sommario :    VFR   VFR Marginale   IFR   IFR Intensivo   IFR Molto Intensivo
Visibilità : 
Base nubi : 
>= 8 km
>= 3000ft
5 / 8 km
1000 / 3000 ft
1500m / 5 km
500 / 1000 ft
800 / 1500m
200 / 500 ft
< 800m
< 200 ft
Simboli :   Temporali  Nebbia  Neve Forte  Precipitazioni Forti  Vento > 20 kt
SIGMETs :   Varie  Temporali  Ghiacco  Turbolenza  Onda orograficha  Ceneri Vulcaniche







- Altitudine del aeroporto : 90 ft
- Codice IATA : NTE
- Carte del aeroporto


LFRS - Nantes

ULTIMO METAR :
  • 170030Z AUTO 32004KT CAVOK 14/13 Q1019 NOSIG

METARs OBSOLETI :
  • 170000Z AUTO 33005KT CAVOK 15/13 Q1019 NOSIG
  • 162330Z AUTO 33004KT CAVOK 15/14 Q1019 NOSIG
  • 162300Z AUTO 34005KT 310V010 CAVOK 15/14 Q1019 NOSIG
  • 162230Z AUTO 34007KT 310V010 9999 FEW016 BKN110 16/14 Q1019 NOSIG
  • 162200Z AUTO 35007KT 300V010 9999 FEW044 OVC110 16/14 Q1018 NOSIG

TAF TAF LFRS
Valido dal 17 a 00 ore il 18 a 06 ore UTC


162300Z 1700/1806 32005KT CAVOK
ATIS : +33 2 40 05 12 74
Nessun NOTAM noto per questo aeroporto.
2 SIGMETs conosciuti per la FIR Brest (LFRR) :
 
Turbolenza severa
LFRR SIGMET 1 VALID 170200/170600 LFPW
LFRR BREST FIR/UIR SEV TURB FCST WI N4945 W00330 - N5000 W00200 - N5000 W00115 - N4715 W00300 - N4715 W00415 - N4945 W00330 FL250/350 MOV E 20KT NC=
Turbolenza severa
LFRR SIGMET 1 VALID 162200/170200 LFPW
LFRR BREST FIR/UIR SEV TURB FCST WI N4915 W00645 - N4930 W00445 - N4730 W00600 - N4730 W00645 - N4915 W00645 FL230/350 MOV SE 25KT NC=



MetMap, La meteo Aeronautica in un colpo d'occhio ! - Copyright ORBIFLY Dicembre 2007 - Disclaimer

ORBIFLY MET'MAP TEAM :

Programmazione e sviluppo : Alexandra Zaïnal
Concezione e sviluppo : Baudouin d'Aumeries
Co-Programmazione e sviluppo : Marc-Olivier Méhu
Supporto tecnico e logistico : Manuel Goepfert
Aiuto per la traduzione : Arnaldo La Scala

Contatto : metmap@orbifly.com




FONTI E CREDITI :

   NOAA